createdAt,value
2022-11-28T00:00:12.185Z,142.90
2022-11-28T00:05:08.371Z,103.50
2022-11-28T00:10:07.595Z,105.20
2022-11-28T00:15:06.778Z,189.50
2022-11-28T00:20:05.962Z,132.80
2022-11-28T00:25:08.235Z,117.60
2022-11-28T00:30:05.387Z,110.40
2022-11-28T00:35:03.565Z,214.40
2022-11-28T00:40:02.749Z,309.20
2022-11-28T00:45:01.938Z,275.10
2022-11-28T00:50:01.111Z,262.10
2022-11-28T00:55:00.315Z,237.30
2022-11-28T01:00:00.495Z,214.20
2022-11-28T01:04:58.675Z,200.90
2022-11-28T01:09:58.970Z,186.20
2022-11-28T01:14:57.289Z,179.30
2022-11-28T01:19:58.627Z,171.40
2022-11-28T01:24:55.937Z,161.40
2022-11-28T01:29:55.259Z,152.00
2022-11-28T01:34:54.537Z,146.30
2022-11-28T01:39:52.821Z,137.10
2022-11-28T01:44:53.099Z,131.40
2022-11-28T01:49:53.382Z,126.10
2022-11-28T01:54:52.664Z,117.70
2022-11-28T01:59:52.950Z,113.60
2022-11-28T02:04:50.254Z,110.10
2022-11-28T02:09:49.564Z,101.30
2022-11-28T02:14:49.878Z,99.90
2022-11-28T02:19:48.186Z,92.90
2022-11-28T02:24:48.514Z,87.10
2022-11-28T02:29:46.821Z,84.10
2022-11-28T02:34:47.439Z,82.80
2022-11-28T02:39:46.378Z,78.50
2022-11-28T02:44:45.068Z,74.70
2022-11-28T02:49:46.983Z,70.40
2022-11-28T02:54:43.300Z,68.70
2022-11-28T02:59:42.376Z,65.30
2022-11-28T03:04:42.868Z,60.00
2022-11-28T03:09:43.007Z,60.90
2022-11-28T03:14:40.554Z,57.40
2022-11-28T03:19:42.497Z,56.80
2022-11-28T03:24:39.911Z,54.80
2022-11-28T03:29:37.899Z,50.20
2022-11-28T03:34:37.217Z,49.00
2022-11-28T03:39:36.502Z,47.70
2022-11-28T03:44:36.807Z,45.60
2022-11-28T03:49:36.078Z,42.30
2022-11-28T03:54:35.385Z,40.30
2022-11-28T03:59:34.702Z,38.90
2022-11-28T04:04:33.007Z,36.70
2022-11-28T04:09:34.327Z,35.70
2022-11-28T04:14:33.630Z,34.60
2022-11-28T04:19:32.924Z,33.10
2022-11-28T04:24:30.206Z,33.40
2022-11-28T04:29:29.517Z,30.70
2022-11-28T04:34:28.816Z,31.10
2022-11-28T04:39:29.111Z,28.80
2022-11-28T04:44:28.379Z,27.10
2022-11-28T04:49:26.668Z,26.90
2022-11-28T04:54:26.993Z,24.90
2022-11-28T04:59:27.291Z,24.60
2022-11-28T05:04:26.589Z,23.70
2022-11-28T05:09:24.877Z,23.80
2022-11-28T05:14:23.221Z,22.90
2022-11-28T05:19:22.489Z,21.90
2022-11-28T05:24:22.547Z,20.50
2022-11-28T05:29:20.933Z,19.40
2022-11-28T05:34:20.222Z,20.00
2022-11-28T05:39:21.533Z,19.10
2022-11-28T05:44:22.828Z,20.10
2022-11-28T05:49:18.933Z,17.00
2022-11-28T05:54:19.250Z,15.60
2022-11-28T05:59:16.526Z,16.10
2022-11-28T06:04:17.854Z,15.60
2022-11-28T06:09:14.977Z,15.30
2022-11-28T06:14:15.332Z,15.00
2022-11-28T06:19:13.538Z,15.20
2022-11-28T06:24:12.627Z,13.40
2022-11-28T06:29:11.912Z,13.80
2022-11-28T06:34:13.247Z,12.30
2022-11-28T06:39:10.531Z,13.10
2022-11-28T06:44:09.842Z,11.90
2022-11-28T06:49:09.109Z,12.90
2022-11-28T06:54:08.432Z,11.40
2022-11-28T06:59:07.725Z,11.20
2022-11-28T07:04:08.057Z,10.50
2022-11-28T07:09:07.327Z,10.50
2022-11-28T07:14:05.631Z,9.50
2022-11-28T07:19:04.930Z,9.40
2022-11-28T07:24:04.260Z,8.70
2022-11-28T07:29:02.581Z,8.60
2022-11-28T07:34:02.886Z,8.20
2022-11-28T07:39:02.226Z,8.30
2022-11-28T07:44:01.547Z,7.30
2022-11-28T07:49:00.812Z,7.30
2022-11-28T07:54:00.121Z,6.50
2022-11-28T07:59:03.164Z,6.70
2022-11-28T08:03:58.740Z,6.60
2022-11-28T08:08:57.902Z,6.10
2022-11-28T08:13:58.214Z,6.10
2022-11-28T08:18:56.364Z,6.60
2022-11-28T08:23:55.665Z,5.10
2022-11-28T08:28:54.966Z,5.50
2022-11-28T08:33:55.271Z,5.40
2022-11-28T08:39:03.908Z,4.80
2022-11-28T08:43:53.715Z,5.10
2022-11-28T08:48:52.013Z,5.10
2022-11-28T08:53:54.949Z,5.20
2022-11-28T08:58:50.534Z,4.40
2022-11-28T09:03:50.929Z,4.40
2022-11-28T09:08:50.047Z,4.70
2022-11-28T09:13:48.381Z,4.20
2022-11-28T09:18:47.697Z,5.60
2022-11-28T09:23:47.866Z,4.60
2022-11-28T09:28:46.020Z,4.80
2022-11-28T09:33:45.158Z,3.90
2022-11-28T09:38:46.483Z,4.10
2022-11-28T09:43:44.800Z,6.70
2022-11-28T09:48:44.111Z,4.70
2022-11-28T09:53:42.424Z,6.40
2022-11-28T09:58:41.740Z,5.80
2022-11-28T10:03:40.907Z,5.10
2022-11-28T10:08:41.052Z,5.80
2022-11-28T10:14:06.087Z,4.30
2022-11-28T10:18:39.518Z,4.90
2022-11-28T10:23:37.805Z,4.30
2022-11-28T10:28:41.097Z,4.70
2022-11-28T10:33:36.396Z,4.30
2022-11-28T10:38:34.891Z,3.90
2022-11-28T10:43:35.034Z,3.70
2022-11-28T10:48:41.540Z,3.40
2022-11-28T10:53:33.342Z,3.20
2022-11-28T10:58:32.483Z,3.50
2022-11-28T11:03:31.871Z,3.30
2022-11-28T11:08:32.149Z,3.60
2022-11-28T11:13:30.293Z,3.10
2022-11-28T11:18:30.477Z,2.70
2022-11-28T11:23:29.460Z,5.00
2022-11-28T11:28:28.778Z,3.30
2022-11-28T11:33:27.624Z,2.60
2022-11-28T11:38:27.348Z,2.90
2022-11-28T11:43:25.749Z,3.40
2022-11-28T11:48:24.901Z,3.00
2022-11-28T11:53:24.387Z,4.60
2022-11-28T11:58:23.535Z,3.00
2022-11-28T12:03:23.039Z,3.30
2022-11-28T12:08:23.057Z,3.30
2022-11-28T12:13:23.381Z,2.60
2022-11-28T12:18:22.691Z,3.40
2022-11-28T12:23:20.010Z,3.30
2022-11-28T12:28:20.092Z,3.10
2022-11-28T12:33:19.390Z,3.40
2022-11-28T12:38:17.715Z,2.80
2022-11-28T12:43:16.876Z,3.50
2022-11-28T12:48:15.973Z,2.60
2022-11-28T12:53:16.358Z,2.90
2022-11-28T12:58:15.642Z,3.80
2022-11-28T13:03:14.023Z,2.30
2022-11-28T13:08:13.142Z,3.00
2022-11-28T13:13:13.490Z,3.50
2022-11-28T13:18:11.591Z,3.10
2022-11-28T13:23:10.940Z,2.60
2022-11-28T13:28:10.331Z,2.20
2022-11-28T13:33:09.460Z,2.80
2022-11-28T13:43:08.757Z,3.00
2022-11-28T13:48:07.156Z,2.20
2022-11-28T13:53:06.474Z,2.60
2022-11-28T13:58:05.829Z,2.40
2022-11-28T14:03:05.118Z,2.50
2022-11-28T14:08:04.544Z,2.60
2022-11-28T14:13:04.752Z,1.90
2022-11-28T14:18:03.048Z,2.30
2022-11-28T14:23:02.361Z,3.70
2022-11-28T14:28:02.699Z,1.90
2022-11-28T14:33:02.012Z,2.20
2022-11-28T14:38:00.336Z,1.80
2022-11-28T14:43:00.761Z,1.70
2022-11-28T14:47:58.642Z,2.40
2022-11-28T14:52:58.785Z,2.20
2022-11-28T14:57:57.935Z,1.90
2022-11-28T15:02:57.185Z,2.10
2022-11-28T15:07:56.407Z,1.90
2022-11-28T15:12:54.494Z,1.80
2022-11-28T15:17:54.787Z,2.00
2022-11-28T15:22:53.131Z,2.30
2022-11-28T15:27:51.250Z,2.00
2022-11-28T15:32:55.686Z,1.60
2022-11-28T15:37:50.807Z,2.00
2022-11-28T15:42:50.137Z,2.20
2022-11-28T15:47:49.451Z,2.60
2022-11-28T15:52:48.746Z,2.10
2022-11-28T15:57:49.048Z,2.60
2022-11-28T16:02:47.368Z,2.10
2022-11-28T16:07:48.732Z,2.00
2022-11-28T16:12:46.873Z,2.20
2022-11-28T16:17:45.240Z,2.50
2022-11-28T16:22:44.404Z,3.20
2022-11-28T16:27:44.545Z,4.30
2022-11-28T16:32:43.868Z,6.40
2022-11-28T16:37:44.460Z,4.80
2022-11-28T16:42:42.766Z,4.50
2022-11-28T16:47:41.935Z,4.20
2022-11-28T16:52:42.298Z,5.00
2022-11-28T16:57:39.233Z,4.00
2022-11-28T17:02:38.584Z,3.70
2022-11-28T17:07:38.762Z,4.50
2022-11-28T17:12:37.077Z,3.60
2022-11-28T17:17:36.378Z,4.80
2022-11-28T17:22:40.525Z,4.60
2022-11-28T17:27:34.936Z,4.20
2022-11-28T17:32:34.055Z,3.70
2022-11-28T17:37:35.548Z,3.90
2022-11-28T17:42:33.057Z,3.90
2022-11-28T17:47:43.057Z,4.00
2022-11-28T17:52:32.243Z,4.40
2022-11-28T17:57:31.654Z,4.00
2022-11-28T18:02:31.027Z,4.20
2022-11-28T18:07:29.852Z,3.90
2022-11-28T18:12:28.312Z,3.40
2022-11-28T18:17:28.538Z,3.50
2022-11-28T18:22:26.508Z,3.70
2022-11-28T18:27:25.949Z,2.70
2022-11-28T18:32:26.469Z,3.10
2022-11-28T18:37:25.684Z,3.40
2022-11-28T18:42:24.902Z,3.10
2022-11-28T18:47:24.058Z,3.80
2022-11-28T18:52:20.821Z,4.20
2022-11-28T18:57:22.456Z,3.00
2022-11-28T19:02:21.831Z,2.80
2022-11-28T19:07:19.681Z,3.00
2022-11-28T19:12:19.174Z,3.20
2022-11-28T19:17:17.964Z,17.00
2022-11-28T19:22:19.695Z,14.90
2022-11-28T19:27:16.841Z,18.40
2022-11-28T19:32:17.650Z,22.60
2022-11-28T19:37:14.874Z,58.00
2022-11-28T19:42:17.026Z,174.40
2022-11-28T19:47:15.501Z,153.70
2022-11-28T19:52:12.813Z,160.50
2022-11-28T19:57:12.666Z,308.40
2022-11-28T20:02:13.426Z,280.90
2022-11-28T20:07:11.579Z,383.40
2022-11-28T20:12:09.521Z,396.90
2022-11-28T20:17:10.224Z,353.40
2022-11-28T20:22:08.364Z,320.00
2022-11-28T20:27:08.527Z,456.70
2022-11-28T20:32:06.671Z,524.40
2022-11-28T20:37:05.890Z,475.60
2022-11-28T20:42:04.731Z,446.30
2022-11-28T20:47:05.933Z,415.70
2022-11-28T20:52:03.539Z,375.70
2022-11-28T20:57:20.881Z,364.40
2022-11-28T21:02:07.382Z,344.00
2022-11-28T21:07:01.143Z,482.50
2022-11-28T21:12:00.224Z,420.30
2022-11-28T21:16:58.688Z,484.30
2022-11-28T21:21:58.759Z,495.70
2022-11-28T21:26:57.720Z,440.10
2022-11-28T21:31:57.373Z,415.40
2022-11-28T21:36:56.333Z,476.00
2022-11-28T21:41:56.661Z,463.90
2022-11-28T21:46:55.939Z,410.70
2022-11-28T21:51:55.220Z,452.10
2022-11-28T21:56:53.488Z,480.40
2022-11-28T22:01:53.828Z,446.30
2022-11-28T22:06:51.918Z,408.10
2022-11-28T22:11:52.207Z,373.30
2022-11-28T22:16:50.520Z,346.60
2022-11-28T22:21:51.784Z,316.40
2022-11-28T22:26:49.073Z,287.20
2022-11-28T22:31:48.413Z,272.40
2022-11-28T22:36:47.551Z,253.00
2022-11-28T22:41:46.873Z,252.30
2022-11-28T22:46:47.191Z,398.10
2022-11-28T22:51:45.507Z,357.20
2022-11-28T22:56:44.631Z,321.60
2022-11-28T23:01:44.024Z,288.80
2022-11-28T23:06:44.222Z,357.50
2022-11-28T23:11:42.563Z,353.60
2022-11-28T23:16:41.717Z,304.80
2022-11-28T23:21:41.828Z,288.60
2022-11-28T23:26:40.982Z,449.40
2022-11-28T23:31:39.209Z,416.40
2022-11-28T23:36:42.642Z,360.90
2022-11-28T23:41:38.592Z,420.60
2022-11-28T23:46:37.782Z,467.00
2022-11-28T23:51:35.957Z,415.90
2022-11-28T23:56:37.137Z,385.70
